createdAt,value
2018-11-01T00:00:24.944Z,93.29
2018-11-01T00:02:54.059Z,93.32
2018-11-01T00:05:23.135Z,92.80
2018-11-01T00:07:52.403Z,92.77
2018-11-01T00:10:21.557Z,92.25
2018-11-01T00:12:51.026Z,92.69
2018-11-01T00:15:20.339Z,92.34
2018-11-01T00:17:49.439Z,92.76
2018-11-01T00:20:19.142Z,92.48
2018-11-01T00:22:48.406Z,91.81
2018-11-01T00:25:19.031Z,91.82
2018-11-01T00:27:48.036Z,91.52
2018-11-01T00:30:17.235Z,91.62
2018-11-01T00:32:46.404Z,91.79
2018-11-01T00:35:15.522Z,92.23
2018-11-01T00:37:44.755Z,92.68
2018-11-01T00:40:14.807Z,92.96
2018-11-01T00:42:44.883Z,93.16
2018-11-01T00:45:13.967Z,92.97
2018-11-01T00:47:43.023Z,92.47
2018-11-01T00:50:13.394Z,91.97
2018-11-01T00:52:42.930Z,92.70
2018-11-01T00:55:13.074Z,93.41
2018-11-01T00:57:42.743Z,93.55
2018-11-01T01:00:13.670Z,94.02
2018-11-01T01:02:43.089Z,95.27
2018-11-01T01:05:12.882Z,95.80
2018-11-01T01:07:41.819Z,96.91
2018-11-01T01:10:13.398Z,97.15
2018-11-01T01:12:42.941Z,97.29
2018-11-01T01:15:12.260Z,97.56
2018-11-01T01:17:41.402Z,97.29
2018-11-01T01:20:13.461Z,97.63
2018-11-01T01:22:43.858Z,97.07
2018-11-01T01:25:15.469Z,97.20
2018-11-01T01:27:44.724Z,96.88
2018-11-01T01:30:16.082Z,95.93
2018-11-01T01:32:45.738Z,94.87
2018-11-01T01:35:15.163Z,94.39
2018-11-01T01:37:44.478Z,94.55
2018-11-01T01:40:13.751Z,94.45
2018-11-01T01:42:48.208Z,94.32
2018-11-01T01:45:17.315Z,94.31
2018-11-01T01:47:46.322Z,93.14
2018-11-01T01:50:16.458Z,93.07
2018-11-01T01:52:46.118Z,92.36
2018-11-01T01:55:15.615Z,93.03
2018-11-01T01:57:44.697Z,92.92
2018-11-01T02:00:16.479Z,93.97
2018-11-01T02:02:47.583Z,94.09
2018-11-01T02:05:17.074Z,94.13
2018-11-01T02:07:46.227Z,93.10
2018-11-01T02:10:16.393Z,92.57
2018-11-01T02:12:45.468Z,93.09
2018-11-01T02:15:16.595Z,93.54
2018-11-01T02:17:46.027Z,92.74
2018-11-01T02:20:16.566Z,91.82
2018-11-01T02:22:46.270Z,91.33
2018-11-01T02:25:15.437Z,91.82
2018-11-01T02:27:49.526Z,92.97
2018-11-01T02:30:19.119Z,92.69
2018-11-01T02:32:48.267Z,92.88
2018-11-01T02:35:18.779Z,91.90
2018-11-01T02:37:48.041Z,91.71
2018-11-01T02:40:17.522Z,91.60
2018-11-01T02:42:47.106Z,91.70
2018-11-01T02:45:16.499Z,91.35
2018-11-01T02:47:45.615Z,91.29
2018-11-01T02:50:15.101Z,91.47
2018-11-01T02:52:44.262Z,91.88
2018-11-01T02:55:13.604Z,91.90
2018-11-01T02:57:42.759Z,91.67
2018-11-01T03:00:14.458Z,91.04
2018-11-01T03:02:43.478Z,91.46
2018-11-01T03:05:13.184Z,91.35
2018-11-01T03:07:42.498Z,91.31
2018-11-01T03:10:13.069Z,91.77
2018-11-01T03:12:42.446Z,91.50
2018-11-01T03:15:12.625Z,91.75
2018-11-01T03:17:41.785Z,92.01
2018-11-01T03:20:11.851Z,92.29
2018-11-01T03:22:40.992Z,91.94
2018-11-01T03:25:10.604Z,91.82
2018-11-01T03:27:39.707Z,91.73
2018-11-01T03:30:09.174Z,91.79
2018-11-01T03:32:38.974Z,91.21
2018-11-01T03:35:09.151Z,91.11
2018-11-01T03:37:38.242Z,91.60
2018-11-01T03:40:08.608Z,90.84
2018-11-01T03:42:38.117Z,90.47
2018-11-01T03:45:08.503Z,91.16
2018-11-01T03:47:37.842Z,90.19
2018-11-01T03:50:07.019Z,90.74
2018-11-01T03:52:36.347Z,91.10
2018-11-01T03:55:06.431Z,90.23
2018-11-01T03:57:35.807Z,90.73
2018-11-01T04:00:06.415Z,90.99
2018-11-01T04:02:35.607Z,91.71
2018-11-01T04:05:04.786Z,92.48
2018-11-01T04:07:33.991Z,91.78
2018-11-01T04:10:02.850Z,91.37
2018-11-01T04:12:32.104Z,92.02
2018-11-01T04:15:01.547Z,92.27
2018-11-01T04:17:30.787Z,92.68
2018-11-01T04:19:59.927Z,93.21
2018-11-01T04:22:29.122Z,92.90
2018-11-01T04:24:58.224Z,93.26
2018-11-01T04:27:27.619Z,92.96
2018-11-01T04:29:56.724Z,92.81
2018-11-01T04:32:25.987Z,92.56
2018-11-01T04:34:55.090Z,92.14
2018-11-01T04:37:24.407Z,92.50
2018-11-01T04:39:53.879Z,92.21
2018-11-01T04:42:22.955Z,92.42
2018-11-01T04:44:52.256Z,92.66
2018-11-01T04:47:21.436Z,92.84
2018-11-01T04:49:50.506Z,92.78
2018-11-01T04:52:19.895Z,92.26
2018-11-01T04:54:49.082Z,91.89
2018-11-01T04:57:18.064Z,92.12
2018-11-01T04:59:47.367Z,92.31
2018-11-01T05:02:16.554Z,91.54
2018-11-01T05:04:45.660Z,91.25
2018-11-01T05:07:14.963Z,90.06
2018-11-01T05:09:44.379Z,90.01
2018-11-01T05:12:13.559Z,89.92
2018-11-01T05:14:42.606Z,89.97
2018-11-01T05:17:11.963Z,90.52
2018-11-01T05:19:41.158Z,90.61
2018-11-01T05:22:10.379Z,90.86
2018-11-01T05:24:39.499Z,89.94
2018-11-01T05:27:09.025Z,89.52
2018-11-01T05:29:38.395Z,88.39
2018-11-01T05:32:07.666Z,88.38
2018-11-01T05:34:36.890Z,87.81
2018-11-01T05:37:06.572Z,87.58
2018-11-01T05:39:35.708Z,86.93
2018-11-01T05:42:04.842Z,86.58
2018-11-01T05:44:33.719Z,86.06
2018-11-01T05:47:03.028Z,85.21
2018-11-01T05:49:32.280Z,83.98
2018-11-01T05:52:01.574Z,83.52
2018-11-01T05:54:31.063Z,83.16
2018-11-01T05:57:00.073Z,82.86
2018-11-01T05:59:29.442Z,81.73
2018-11-01T06:02:00.598Z,80.88
2018-11-01T06:04:29.987Z,79.40
2018-11-01T06:06:59.050Z,77.89
2018-11-01T06:09:30.099Z,77.53
2018-11-01T06:11:59.207Z,77.68
2018-11-01T06:14:28.696Z,78.58
2018-11-01T06:16:58.189Z,78.05
2018-11-01T06:19:27.478Z,78.92
2018-11-01T06:21:56.911Z,78.86
2018-11-01T06:24:26.482Z,78.25
2018-11-01T06:26:56.444Z,78.15
2018-11-01T06:29:25.880Z,78.00
2018-11-01T06:31:55.551Z,77.87
2018-11-01T06:34:32.445Z,77.32
2018-11-01T06:37:02.556Z,78.09
2018-11-01T06:39:32.184Z,77.12
2018-11-01T06:42:01.388Z,76.48
2018-11-01T06:44:30.883Z,76.55
2018-11-01T06:46:59.962Z,75.44
2018-11-01T06:49:29.114Z,74.82
2018-11-01T06:51:58.906Z,75.05
2018-11-01T06:54:30.925Z,75.15
2018-11-01T06:57:00.785Z,74.98
2018-11-01T06:59:30.264Z,74.41
2018-11-01T07:01:59.398Z,74.79
2018-11-01T07:04:28.665Z,73.87
2018-11-01T07:06:57.898Z,73.16
2018-11-01T07:09:27.486Z,72.77
2018-11-01T07:11:57.106Z,71.96
2018-11-01T07:14:26.177Z,71.71
2018-11-01T07:16:55.515Z,71.46
2018-11-01T07:19:24.709Z,71.04
2018-11-01T07:21:53.741Z,69.89
2018-11-01T07:24:23.220Z,69.68
2018-11-01T07:26:52.551Z,70.11
2018-11-01T07:29:21.759Z,68.32
2018-11-01T07:31:51.048Z,67.22
2018-11-01T07:34:20.034Z,66.45
2018-11-01T07:36:49.403Z,66.12
2018-11-01T07:39:18.562Z,65.21
2018-11-01T07:41:47.743Z,66.34
2018-11-01T07:44:16.949Z,65.04
2018-11-01T07:46:46.238Z,64.06
2018-11-01T07:49:15.430Z,63.01
2018-11-01T07:51:44.713Z,62.50
2018-11-01T07:54:14.142Z,63.38
2018-11-01T07:56:43.310Z,62.29
2018-11-01T07:59:12.387Z,61.46
2018-11-01T08:01:41.667Z,61.26
2018-11-01T08:04:10.911Z,61.05
2018-11-01T08:06:39.940Z,60.56
2018-11-01T08:09:10.410Z,60.84
2018-11-01T08:11:40.057Z,60.97
2018-11-01T08:14:09.512Z,59.83
2018-11-01T08:16:38.787Z,60.00
2018-11-01T08:19:08.547Z,58.53
2018-11-01T08:21:37.786Z,57.86
2018-11-01T08:24:07.098Z,58.83
2018-11-01T08:26:36.226Z,57.68
2018-11-01T08:29:05.385Z,56.99
2018-11-01T08:31:34.668Z,57.03
2018-11-01T08:34:03.882Z,56.55
2018-11-01T08:36:33.085Z,56.21
2018-11-01T08:39:02.526Z,56.70
2018-11-01T08:41:31.671Z,57.38
2018-11-01T08:44:00.654Z,57.12
2018-11-01T08:46:29.896Z,57.01
2018-11-01T08:48:59.163Z,56.79
2018-11-01T08:51:28.403Z,57.81
2018-11-01T08:53:57.787Z,57.89
2018-11-01T08:56:27.074Z,57.04
2018-11-01T08:58:56.291Z,56.16
2018-11-01T09:01:25.495Z,55.80
2018-11-01T09:03:54.544Z,55.54
2018-11-01T09:06:23.592Z,56.31
2018-11-01T09:08:53.487Z,56.93
2018-11-01T09:11:22.333Z,55.52
2018-11-01T09:13:52.023Z,55.69
2018-11-01T09:16:21.431Z,56.24
2018-11-01T09:18:50.458Z,55.75
2018-11-01T09:21:19.662Z,55.85
2018-11-01T09:23:48.793Z,55.77
2018-11-01T09:26:17.642Z,55.34
2018-11-01T09:28:46.785Z,56.80
2018-11-01T09:31:15.963Z,55.48
2018-11-01T09:33:45.204Z,54.75
2018-11-01T09:36:14.245Z,55.40
2018-11-01T09:38:43.275Z,54.88
2018-11-01T09:41:12.405Z,55.15
2018-11-01T09:43:41.769Z,54.17
2018-11-01T09:46:11.212Z,53.30
2018-11-01T09:48:40.122Z,51.98
2018-11-01T09:51:09.210Z,51.60
2018-11-01T09:53:38.264Z,51.23
2018-11-01T09:56:07.389Z,50.41
2018-11-01T09:58:37.330Z,50.27
2018-11-01T10:01:06.456Z,50.11
2018-11-01T10:03:35.469Z,50.19
2018-11-01T10:06:04.570Z,51.27
2018-11-01T10:08:33.838Z,51.75
2018-11-01T10:11:03.118Z,52.02
2018-11-01T10:13:32.375Z,52.53
2018-11-01T10:16:01.653Z,52.51
2018-11-01T10:18:31.405Z,52.82
2018-11-01T10:21:00.232Z,52.80
2018-11-01T10:23:29.438Z,52.50
2018-11-01T10:25:58.993Z,53.42
2018-11-01T10:28:27.990Z,53.90
2018-11-01T10:30:57.321Z,53.68
2018-11-01T10:33:26.474Z,53.52
2018-11-01T10:35:55.886Z,53.14
2018-11-01T10:38:25.091Z,53.19
2018-11-01T10:40:54.477Z,52.49
2018-11-01T10:43:23.486Z,51.82
2018-11-01T10:45:52.578Z,51.99
2018-11-01T10:48:21.835Z,52.40
2018-11-01T10:50:50.762Z,52.23
2018-11-01T10:53:19.866Z,52.40
2018-11-01T10:55:49.034Z,52.39
2018-11-01T10:58:18.146Z,52.07
2018-11-01T11:00:52.671Z,51.59
2018-11-01T11:03:21.474Z,51.54
2018-11-01T11:05:50.266Z,50.94
2018-11-01T11:08:19.341Z,50.70
2018-11-01T11:10:48.372Z,50.11
2018-11-01T11:13:17.397Z,49.58
2018-11-01T11:15:46.347Z,50.11
2018-11-01T11:18:15.535Z,50.02
2018-11-01T11:20:44.610Z,49.93
2018-11-01T11:23:13.648Z,49.22
2018-11-01T11:25:42.962Z,48.85
2018-11-01T11:28:11.986Z,49.72
2018-11-01T11:30:41.172Z,49.96
2018-11-01T11:33:10.239Z,49.76
2018-11-01T11:35:39.546Z,50.61
2018-11-01T11:38:08.843Z,50.47
2018-11-01T11:40:37.827Z,51.09
2018-11-01T11:43:07.343Z,49.73
2018-11-01T11:45:36.070Z,49.70
2018-11-01T11:48:05.815Z,50.72
2018-11-01T11:50:34.866Z,50.21
2018-11-01T11:53:04.134Z,49.98
2018-11-01T11:55:32.967Z,50.22
2018-11-01T11:58:02.027Z,50.11
2018-11-01T12:00:31.094Z,49.47
2018-11-01T12:03:01.094Z,50.17
2018-11-01T12:05:30.429Z,50.11
2018-11-01T12:07:59.451Z,50.05
2018-11-01T12:10:29.031Z,49.94
2018-11-01T12:12:58.039Z,48.91
2018-11-01T12:15:27.446Z,48.72
2018-11-01T12:17:56.336Z,48.75
2018-11-01T12:20:25.431Z,49.13
2018-11-01T12:22:54.902Z,49.09
2018-11-01T12:25:24.090Z,48.79
2018-11-01T12:27:56.271Z,48.72
2018-11-01T12:30:25.298Z,49.13
2018-11-01T12:32:54.343Z,49.72
2018-11-01T12:35:23.405Z,48.80
2018-11-01T12:37:52.486Z,48.70
2018-11-01T12:40:21.671Z,49.02
2018-11-01T12:42:50.846Z,50.12
2018-11-01T12:45:20.274Z,50.40
2018-11-01T12:47:49.877Z,51.17
2018-11-01T12:50:18.825Z,51.31
2018-11-01T12:52:47.736Z,51.11
2018-11-01T12:55:17.411Z,50.56
2018-11-01T12:57:47.970Z,50.32
2018-11-01T13:00:17.095Z,49.87
2018-11-01T13:02:45.962Z,50.29
2018-11-01T13:05:15.496Z,50.57
2018-11-01T13:07:44.614Z,50.75
2018-11-01T13:10:13.639Z,51.72
2018-11-01T13:12:43.296Z,51.43
2018-11-01T13:15:12.926Z,51.31
2018-11-01T13:17:42.130Z,51.37
2018-11-01T13:20:11.941Z,50.86
2018-11-01T13:22:40.960Z,50.42
2018-11-01T13:25:12.850Z,50.71
2018-11-01T13:27:44.017Z,50.54
2018-11-01T13:30:15.927Z,50.73
2018-11-01T13:32:46.055Z,50.23
2018-11-01T13:35:17.663Z,50.71
2018-11-01T13:37:47.332Z,51.12
2018-11-01T13:40:16.671Z,51.83
2018-11-01T13:42:47.574Z,51.44
2018-11-01T13:45:18.783Z,51.57
2018-11-01T13:47:49.172Z,52.46
2018-11-01T13:50:18.223Z,52.04
2018-11-01T13:52:49.122Z,51.82
2018-11-01T13:55:18.135Z,52.19
2018-11-01T13:57:48.038Z,52.30
2018-11-01T14:00:17.228Z,52.14
2018-11-01T14:02:46.503Z,52.80
2018-11-01T14:05:17.809Z,52.88
2018-11-01T14:07:47.788Z,52.98
2018-11-01T14:10:17.195Z,53.27
2018-11-01T14:12:46.195Z,53.64
2018-11-01T14:15:15.639Z,53.38
2018-11-01T14:17:44.387Z,53.69
2018-11-01T14:20:13.965Z,53.89
2018-11-01T14:22:43.112Z,54.21
2018-11-01T14:25:12.883Z,54.38
2018-11-01T14:27:42.372Z,54.43
2018-11-01T14:30:14.801Z,54.99
2018-11-01T14:32:43.979Z,55.21
2018-11-01T14:35:13.407Z,55.01
2018-11-01T14:37:42.563Z,55.47
2018-11-01T14:40:12.918Z,55.56
2018-11-01T14:42:42.220Z,55.07
2018-11-01T14:45:12.492Z,55.49
2018-11-01T14:47:42.001Z,56.07
2018-11-01T14:50:11.674Z,56.61
2018-11-01T14:52:41.072Z,56.18
2018-11-01T14:55:11.628Z,56.34
2018-11-01T14:57:40.657Z,56.19
2018-11-01T15:00:09.790Z,56.56
2018-11-01T15:02:38.947Z,56.27
2018-11-01T15:05:08.639Z,55.98
2018-11-01T15:07:37.714Z,56.23
2018-11-01T15:10:08.751Z,55.94
2018-11-01T15:12:37.982Z,55.95
2018-11-01T15:15:08.036Z,55.87
2018-11-01T15:17:37.412Z,56.07
2018-11-01T15:20:06.587Z,55.64
2018-11-01T15:22:35.657Z,55.94
2018-11-01T15:25:04.670Z,55.40
2018-11-01T15:27:33.845Z,55.50
2018-11-01T15:30:03.237Z,55.41
2018-11-01T15:32:32.323Z,55.37
2018-11-01T15:35:01.453Z,55.36
2018-11-01T15:37:30.708Z,55.52
2018-11-01T15:40:00.117Z,55.02
2018-11-01T15:42:29.179Z,55.22
2018-11-01T15:44:58.427Z,55.23
2018-11-01T15:47:27.813Z,54.89
2018-11-01T15:49:56.942Z,55.28
2018-11-01T15:52:26.272Z,54.98
2018-11-01T15:54:55.570Z,55.08
2018-11-01T15:57:24.760Z,55.33
2018-11-01T15:59:53.843Z,55.35
2018-11-01T16:02:23.004Z,55.53
2018-11-01T16:04:52.120Z,55.21
2018-11-01T16:07:21.230Z,55.79
2018-11-01T16:09:50.353Z,56.11
2018-11-01T16:12:19.414Z,56.04
2018-11-01T16:14:48.715Z,55.49
2018-11-01T16:17:17.917Z,55.72
2018-11-01T16:19:47.229Z,55.93
2018-11-01T16:22:16.288Z,55.88
2018-11-01T16:24:45.439Z,56.37
2018-11-01T16:27:14.731Z,56.33
2018-11-01T16:29:43.822Z,57.12
2018-11-01T16:32:12.985Z,57.22
2018-11-01T16:34:42.106Z,57.33
2018-11-01T16:37:11.416Z,58.00
2018-11-01T16:39:40.518Z,57.59
2018-11-01T16:42:09.671Z,58.03
2018-11-01T16:44:38.869Z,57.67
2018-11-01T16:47:08.127Z,57.64
2018-11-01T16:49:37.314Z,57.39
2018-11-01T16:52:06.614Z,58.09
2018-11-01T16:54:35.971Z,58.49
2018-11-01T16:57:05.323Z,58.73
2018-11-01T16:59:35.250Z,59.16
2018-11-01T17:02:04.723Z,59.21
2018-11-01T17:04:33.888Z,60.51
2018-11-01T17:07:02.969Z,60.51
2018-11-01T17:09:32.235Z,61.47
2018-11-01T17:12:01.337Z,62.66
2018-11-01T17:14:30.880Z,63.46
2018-11-01T17:17:00.163Z,63.98
2018-11-01T17:19:29.354Z,64.86
2018-11-01T17:21:58.896Z,65.52
2018-11-01T17:24:28.252Z,66.35
2018-11-01T17:26:57.776Z,66.18
2018-11-01T17:29:27.460Z,65.99
2018-11-01T17:31:56.674Z,64.97
2018-11-01T17:34:26.019Z,65.70
2018-11-01T17:36:55.568Z,65.80
2018-11-01T17:39:24.599Z,66.12
2018-11-01T17:41:53.762Z,65.20
2018-11-01T17:44:23.083Z,65.64
2018-11-01T17:46:52.130Z,64.60
2018-11-01T17:49:21.264Z,64.57
2018-11-01T17:51:52.299Z,64.38
2018-11-01T17:54:21.521Z,64.48
2018-11-01T17:56:50.827Z,63.74
2018-11-01T17:59:20.101Z,63.91
2018-11-01T18:01:49.390Z,63.65
2018-11-01T18:04:18.514Z,63.06
2018-11-01T18:06:47.774Z,63.62
2018-11-01T18:09:16.919Z,63.51
2018-11-01T18:11:46.215Z,62.91
2018-11-01T18:14:15.153Z,63.03
2018-11-01T18:16:44.385Z,62.91
2018-11-01T18:19:13.624Z,63.65
2018-11-01T18:21:42.817Z,63.60
2018-11-01T18:24:12.119Z,63.16
2018-11-01T18:26:41.428Z,63.50
2018-11-01T18:29:10.922Z,63.73
2018-11-01T18:31:39.971Z,63.22
2018-11-01T18:34:09.232Z,63.37
2018-11-01T18:36:38.320Z,63.87
2018-11-01T18:39:08.614Z,63.63
2018-11-01T18:41:37.959Z,63.96
2018-11-01T18:44:07.148Z,63.46
2018-11-01T18:46:36.402Z,64.21
2018-11-01T18:49:05.887Z,63.72
2018-11-01T18:51:35.243Z,63.62
2018-11-01T18:54:06.209Z,63.84
2018-11-01T18:56:35.323Z,63.64
2018-11-01T18:59:04.499Z,63.98
2018-11-01T19:01:33.795Z,64.32
2018-11-01T19:04:02.865Z,64.14
2018-11-01T19:06:32.109Z,63.94
2018-11-01T19:09:01.375Z,63.74
2018-11-01T19:11:30.596Z,63.97
2018-11-01T19:13:59.976Z,64.14
2018-11-01T19:16:28.902Z,63.88
2018-11-01T19:18:58.066Z,63.95
2018-11-01T19:21:26.988Z,63.78
2018-11-01T19:23:56.109Z,63.48
2018-11-01T19:26:25.307Z,63.62
2018-11-01T19:28:54.689Z,63.93
2018-11-01T19:31:23.748Z,64.41
2018-11-01T19:33:53.050Z,64.26
2018-11-01T19:36:22.159Z,65.23
2018-11-01T19:38:51.354Z,64.79
2018-11-01T19:41:20.554Z,65.40
2018-11-01T19:43:49.907Z,65.42
2018-11-01T19:46:19.114Z,65.12
2018-11-01T19:48:48.279Z,65.40
2018-11-01T19:51:17.459Z,65.59
2018-11-01T19:53:46.515Z,65.06
2018-11-01T19:56:15.780Z,64.66
2018-11-01T19:58:44.931Z,63.34
2018-11-01T20:01:14.269Z,63.00
2018-11-01T20:03:43.900Z,63.05
2018-11-01T20:06:12.992Z,62.52
2018-11-01T20:08:42.325Z,61.99
2018-11-01T20:11:11.459Z,62.19
2018-11-01T20:13:41.135Z,62.29
2018-11-01T20:16:11.480Z,61.39
2018-11-01T20:18:40.792Z,61.37
2018-11-01T20:21:10.326Z,62.00
2018-11-01T20:23:39.618Z,61.65
2018-11-01T20:26:08.894Z,62.23
2018-11-01T20:28:37.696Z,62.25
2018-11-01T20:31:07.291Z,62.52
2018-11-01T20:33:36.608Z,62.30
2018-11-01T20:36:05.716Z,62.49
2018-11-01T20:38:35.213Z,62.78
2018-11-01T20:41:04.263Z,63.00
2018-11-01T20:43:33.490Z,63.50
2018-11-01T20:46:03.235Z,63.88
2018-11-01T20:48:32.372Z,64.30
2018-11-01T20:51:01.405Z,64.48
2018-11-01T20:53:30.599Z,64.86
2018-11-01T20:56:00.186Z,65.70
2018-11-01T20:58:29.475Z,65.82
2018-11-01T21:00:58.435Z,66.89
2018-11-01T21:03:27.762Z,66.60
2018-11-01T21:05:57.037Z,68.04
2018-11-01T21:08:26.499Z,68.60
2018-11-01T21:10:55.966Z,69.41
2018-11-01T21:13:25.040Z,70.04
2018-11-01T21:15:54.267Z,70.38
2018-11-01T21:18:23.520Z,71.21
2018-11-01T21:20:52.693Z,71.98
2018-11-01T21:23:22.544Z,72.54
2018-11-01T21:25:51.642Z,73.32
2018-11-01T21:28:20.695Z,73.80
2018-11-01T21:30:49.904Z,74.23
2018-11-01T21:33:18.990Z,74.84
2018-11-01T21:35:48.793Z,75.24
2018-11-01T21:38:17.831Z,75.99
2018-11-01T21:40:47.008Z,76.84
2018-11-01T21:43:16.234Z,76.76
2018-11-01T21:45:45.130Z,77.81
2018-11-01T21:48:14.708Z,78.29
2018-11-01T21:50:43.827Z,78.36
2018-11-01T21:53:13.023Z,78.93
2018-11-01T21:55:42.231Z,79.94
2018-11-01T21:58:11.423Z,79.94
2018-11-01T22:00:40.466Z,80.65
2018-11-01T22:03:09.528Z,81.61
2018-11-01T22:05:38.723Z,82.09
2018-11-01T22:08:07.762Z,82.83
2018-11-01T22:10:36.834Z,83.00
2018-11-01T22:13:06.179Z,84.12
2018-11-01T22:15:35.314Z,84.46
2018-11-01T22:18:04.473Z,85.23
2018-11-01T22:20:33.614Z,85.54
2018-11-01T22:23:07.375Z,85.24
2018-11-01T22:25:36.682Z,85.62
2018-11-01T22:28:06.834Z,85.57
2018-11-01T22:30:35.594Z,85.53
2018-11-01T22:33:04.987Z,85.74
2018-11-01T22:35:34.223Z,85.39
2018-11-01T22:38:03.521Z,85.75
2018-11-01T22:40:32.906Z,86.08
2018-11-01T22:43:02.005Z,86.03
2018-11-01T22:45:30.955Z,85.71
2018-11-01T22:47:59.980Z,85.21
2018-11-01T22:50:29.043Z,85.43
2018-11-01T22:52:58.163Z,85.96
2018-11-01T22:55:27.537Z,85.82
2018-11-01T22:57:56.646Z,85.85
2018-11-01T23:00:25.811Z,85.93
2018-11-01T23:02:55.359Z,86.08
2018-11-01T23:05:24.442Z,85.92
2018-11-01T23:07:53.558Z,86.23
2018-11-01T23:10:22.956Z,86.03
2018-11-01T23:12:52.140Z,86.69
2018-11-01T23:15:21.405Z,86.70
2018-11-01T23:17:51.070Z,86.38
2018-11-01T23:20:20.230Z,86.65
2018-11-01T23:22:49.243Z,86.07
2018-11-01T23:25:18.550Z,86.75
2018-11-01T23:27:47.823Z,86.92
2018-11-01T23:30:16.979Z,87.12
2018-11-01T23:32:46.148Z,86.97
2018-11-01T23:35:15.135Z,86.78
2018-11-01T23:37:49.514Z,86.87
2018-11-01T23:40:23.739Z,86.48
2018-11-01T23:42:58.051Z,86.35
2018-11-01T23:45:32.330Z,86.39
2018-11-01T23:48:00.711Z,86.15
2018-11-01T23:50:42.111Z,86.77
2018-11-01T23:53:18.510Z,86.10
2018-11-01T23:55:47.921Z,86.39
2018-11-01T23:58:16.944Z,86.04
